D/T METAR WX W/DIR W/SPE G/SPE TEMP DEWP
7/12/19 23:50 EGQS 072350Z 22015KT CAVOK 12/08 Q0975 RMK BLU SW (220°) 17.3mph 12°C 8°C
7/12/19 22:50 EGQS 072250Z 22020KT CAVOK 12/08 Q0977 RMK BLU SW (220°) 23.0mph 12°C 8°C
7/12/19 21:50 EGQS 072150Z 22019KT CAVOK 12/08 Q0979 RMK BLU SW (220°) 21.9mph 12°C 8°C
7/12/19 20:50 EGQS 072050Z 21018G29KT 9999 -RA OVC080 12/09 Q0981 RMK BLU -RA SSW (210°) 20.7mph 33.4mph 12°C 9°C
7/12/19 19:50 EGQS 071950Z 21014KT 9999 -RA FEW060 OVC080 11/09 Q0983 RMK BLU -RA SSW (210°) 16.1mph 11°C 9°C
7/12/19 18:50 EGQS 071850Z 21012KT CAVOK 11/08 Q0986 RMK BLU SSW (210°) 13.8mph 11°C 8°C
7/12/19 17:50 EGQS 071750Z 20006KT 9999 -RA FEW070 OVC080 10/08 Q0988 RMK BLU -RA SSW (200°) 6.9mph 10°C 8°C
7/12/19 16:50 EGQS 071650Z 17006KT 9999 FEW040 BKN080 08/07 Q0990 RMK BLU S (170°) 6.9mph 8°C 7°C
7/12/19 15:50 EGQS 071550Z 14008KT 9999 -RA FEW030 BKN080 08/06 Q0992 RMK BLU -RA SE (140°) 9.2mph 8°C 6°C
7/12/19 14:50 EGQS 071450Z 12008KT 9999 FEW025 SCT040 BKN060 07/06 Q0994 BLU RMK BLU ESE (120°) 9.2mph 7°C 6°C
7/12/19 13:50 EGQS 071350Z 14007KT 9999 -RA FEW025 BKN040 OVC070 07/06 Q0996 RMK BLU -RA SE (140°) 8.1mph 7°C 6°C
7/12/19 12:50 EGQS 071250Z 10006KT 9999 FEW025 BKN040 OVC080 07/06 Q0998 BLU RMK BLU E (100°) 6.9mph 7°C 6°C
7/12/19 11:50 EGQS 071150Z 13006KT 9999 RA FEW025 BKN035 BKN060 06/05 Q0999 RMK BLU RA SE (130°) 6.9mph 6°C 5°C
7/12/19 10:50 EGQS 071050Z 16004KT 9999 -RA FEW020 BKN030 BKN045 06/05 Q1001 RMK BLU -RA SSE (160°) 4.6mph 6°C 5°C
7/12/19 09:50 EGQS 070950Z 17004KT 9999 FEW020 SCT030 BKN050 05/05 Q1001 RMK BLU S (170°) 4.6mph 5°C 5°C
7/12/19 08:50 EGQS 070850Z 21005KT 9999 FEW020 SCT032 05/04 Q1001 RMK BLU SSW (210°) 5.8mph 5°C 4°C
7/12/19 07:50 EGQS 070750Z 22005KT 9999 FEW020 BKN032 BKN160 05/04 Q1002 RMK BLU SW (220°) 5.8mph 5°C 4°C
7/12/19 06:50 EGQS 070650Z 25006KT 9999 FEW021 BKN038 06/04 Q1002 RMK BLU WSW (250°) 6.9mph 6°C 4°C
7/12/19 05:50 EGQS 070550Z 24009KT 9999 FEW018 SCT160 05/04 Q1001 RMK BLU WSW (240°) 10.4mph 5°C 4°C
7/12/19 04:50 EGQS 070450Z 25010KT 9999 SCT037 BKN060 06/05 Q1002 RMK BLU WSW (250°) 11.5mph 6°C 5°C
7/12/19 03:50 EGQS 070350Z 28006KT 9999 -SHRA SCT010 BKN030 06/05 Q1001 RESHRA RMK GRN -SHRA W (280°) 6.9mph 6°C 5°C
7/12/19 02:50 EGQS 070250Z 25009KT 9999 FEW030 BKN055 06/04 Q1000 RMK BLU WSW (250°) 10.4mph 6°C 4°C
7/12/19 01:50 EGQS 070150Z 26010KT 9999 FEW038 BKN050 06/04 Q1000 RMK BLU W (260°) 11.5mph 6°C 4°C
7/12/19 00:50 EGQS 070050Z 23007KT 9999 FEW039 05/03 Q1000 RMK BLU SW (230°) 8.1mph 5°C 3°C
6/12/19 23:50 EGQS 062350Z 27009KT 9999 -SHRA FEW020 BKN045 06/05 Q0999 RMK BLU -SHRA W (270°) 10.4mph 6°C 5°C
6/12/19 22:50 EGQS 062250Z 25007KT 9999 SCT024 SCT038 06/04 Q0998 RMK WHT WSW (250°) 8.1mph 6°C 4°C
6/12/19 21:50 EGQS 062150Z 28011KT 9999 FEW018 06/05 Q0998 RMK BLU W (280°) 12.7mph 6°C 5°C
6/12/19 20:50 EGQS 062050Z 27009KT 9999 FEW013 SCT060 06/05 Q0997 RMK BLU W (270°) 10.4mph 6°C 5°C
6/12/19 19:50 EGQS 061950Z 29011KT 9999 FEW012 SCT015 BKN028 08/06 Q0997 RMK WHT WNW (290°) 12.7mph 8°C 6°C
6/12/19 18:50 EGQS 061850Z 34014KT 9999 -RADZ SCT009 SCT020 BKN050 08/07 Q0995 RMK GRN -RA -DZ NNW (340°) 16.1mph 8°C 7°C
6/12/19 18:33 EGQS 061833Z 32014KT 3500 RADZ FEW009 SCT011 BKN020 08/07 Q0995 RMK YLO1 RA DZ NW (320°) 16.1mph 8°C 7°C
6/12/19 17:50 EGQS 061750Z 27010KT 7000 -RADZ SCT020 BKN030 08/07 Q0993 RMK WHT -RA -DZ W (270°) 11.5mph 8°C 7°C
6/12/19 16:50 EGQS 061650Z 26012KT 9999 BKN030 BKN070 09/06 Q0992 TEMPO 4000 RADZ SCT012 RMK BLU TEMPO GRN W (260°) 13.8mph 9°C 6°C
6/12/19 16:20 EGQS 061620Z 26012KT 9999 SCT035 BKN060 09/06 Q0991 TEMPO 7000 SHRA SCT018 RMK BLU TEMPO WHT W (260°) 13.8mph 9°C 6°C
6/12/19 15:50 EGQS 061550Z 25013KT 9999 FEW015 SCT035 BKN070 09/06 Q0991 TEMPO 7000 SHRA SCT015 RMK BLU TEMPO WHT WSW (250°) 15.0mph 9°C 6°C
6/12/19 15:21 EGQS 061521Z 26012KT 9999 FEW015 SCT040 08/06 Q0990 TEMPO 7000 SHRA SCT015 RMK BLU TEMPO WHT W (260°) 13.8mph 8°C 6°C
6/12/19 14:50 EGQS 061450Z 26011KT 9999 FEW025 09/06 Q0990 TEMPO 7000 SHRA SCT015 RMK BLU TEMPO WHT W (260°) 12.7mph 9°C 6°C
6/12/19 14:21 EGQS 061421Z 25009KT 9999 FEW015 SCT040 09/06 Q0990 TEMPO 7000 SHRA SCT015 RMK BLU TEMPO WHT WSW (250°) 10.4mph 9°C 6°C
6/12/19 13:50 EGQS 061350Z 25011KT 9999 FEW025 SCT034 09/07 Q0989 NOSIG RMK BLU BLU WSW (250°) 12.7mph 9°C 7°C
6/12/19 13:20 EGQS 061320Z 26013KT 9999 SCT035 SCT070 09/07 Q0989 NOSIG RMK BLU BLU W (260°) 15.0mph 9°C 7°C
6/12/19 12:50 EGQS 061250Z 25009KT 9999 FEW025 SCT050 09/07 Q0989 NOSIG RMK BLU BLU WSW (250°) 10.4mph 9°C 7°C
6/12/19 12:19 EGQS 061219Z 25011KT 9999 FEW025 SCT030 BKN050 09/07 Q0989 NOSIG RMK BLU BLU WSW (250°) 12.7mph 9°C 7°C
6/12/19 11:50 EGQS 061150Z 26012KT 9999 FEW015 SCT030 BKN050 09/07 Q0989 TEMPO SCT015 RMK BLU TEMPO WHT W (260°) 13.8mph 9°C 7°C
6/12/19 11:21 EGQS 061121Z 27010KT 9999 FEW015 SCT030 BKN050 09/07 Q0989 TEMPO SCT015 RMK BLU TEMPO WHT W (270°) 11.5mph 9°C 7°C
6/12/19 10:50 EGQS 061050Z 26008KT 9999 FEW015 SCT025 BKN050 09/08 Q0989 TEMPO SCT015 RMK BLU TEMPO WHT W (260°) 9.2mph 9°C 8°C
6/12/19 10:19 EGQS 061019Z 26009KT 9999 FEW005 SCT025 BKN040 09/09 Q0988 TEMPO SCT020 RMK BLU TEMPO WHT W (260°) 10.4mph 9°C 9°C
6/12/19 09:50 EGQS 060950Z 29008KT 9999 -SHRA FEW007 SCT020 OVC040 09/09 Q0988 RESHRA TEMPO 7000 SHRA RMK WHT TEMPO WHT -SHRA WNW (290°) 9.2mph 9°C 9°C
6/12/19 09:43 EGQS 060943Z 31009KT 9999 7000S -SHRA FEW007 SCT020 OVC040 09/09 Q0988 RESHRA TEMPO 9999 NSW FEW020 RMK WHT TEMPO BLU -SHRA NW (310°) 10.4mph 9°C 9°C